Time;durP1;ratioP1;P1;durP2;ratioP2;P2;SDS_P1;SDS_P2;PMS_P1;PMS_P2;Temp;Humidity;BMP_temperature;BMP_pressure;BME280_temperature;BME280_humidity;BME280_pressure;Samples;Min_cycle;Max_cycle;Signal;HPM_P1;HPM_P2
2023/06/19 00:02:36;;;;;;;6.53;5.65;;;23.00;73.00;;;;;;10443933;28;20036;-66
2023/06/19 00:07:37;;;;;;;7.80;5.82;;;23.00;73.00;;;;;;10437639;28;20497;-66
2023/06/19 00:12:37;;;;;;;9.65;5.80;;;23.00;73.00;;;;;;10453342;28;20408;-66
2023/06/19 00:17:38;;;;;;;6.47;5.47;;;22.90;73.00;;;;;;10446027;28;20033;-67
2023/06/19 00:22:40;;;;;;;7.50;5.68;;;22.90;73.00;;;;;;10452504;28;20048;-66
2023/06/19 00:27:41;;;;;;;6.13;5.28;;;22.90;73.00;;;;;;10453964;28;20033;-66
2023/06/19 00:32:49;;;;;;;6.97;5.40;;;22.90;73.00;;;;;;10451488;28;20409;-67
2023/06/19 00:37:49;;;;;;;7.45;5.65;;;22.90;73.00;;;;;;10439066;28;20021;-66
2023/06/19 00:42:50;;;;;;;7.10;5.88;;;22.90;73.00;;;;;;10451782;28;20037;-66
2023/06/19 00:47:52;;;;;;;7.38;5.82;;;22.90;73.00;;;;;;10448143;28;20029;-66
2023/06/19 00:52:53;;;;;;;6.63;5.35;;;22.90;73.10;;;;;;10448321;28;20029;-66
2023/06/19 00:57:54;;;;;;;6.05;4.95;;;22.90;73.00;;;;;;10445727;28;20503;-66
2023/06/19 01:02:54;;;;;;;7.35;5.80;;;22.80;73.00;;;;;;10443295;28;20040;-66
2023/06/19 01:08:05;;;;;;;5.63;4.75;;;22.90;73.10;;;;;;10444316;28;20032;-66
2023/06/19 01:13:11;;;;;;;7.25;5.22;;;22.90;73.00;;;;;;10445716;28;20112;-67
2023/06/19 01:18:12;;;;;;;7.45;5.20;;;22.90;73.00;;;;;;10444341;28;20515;-68
2023/06/19 01:23:13;;;;;;;7.30;5.38;;;22.80;73.00;;;;;;10444379;28;20009;-67
2023/06/19 01:28:14;;;;;;;9.00;5.63;;;22.80;73.00;;;;;;10447037;28;20029;-65
2023/06/19 01:33:25;;;;;;;6.43;5.05;;;22.80;73.00;;;;;;10450721;28;20393;-66
2023/06/19 01:38:28;;;;;;;6.25;5.20;;;22.80;73.00;;;;;;10441091;28;20039;-68
2023/06/19 01:43:31;;;;;;;6.35;5.25;;;22.80;73.00;;;;;;10436631;28;20029;-66
2023/06/19 01:48:32;;;;;;;6.38;5.43;;;22.90;73.10;;;;;;10445727;28;20512;-66
2023/06/19 01:53:33;;;;;;;8.25;5.47;;;22.80;73.00;;;;;;10442343;28;20028;-65
2023/06/19 01:58:34;;;;;;;6.45;5.40;;;22.80;73.00;;;;;;10451389;28;20434;-65
2023/06/19 02:03:35;;;;;;;7.72;5.78;;;22.80;73.00;;;;;;10446511;28;20025;-64
2023/06/19 02:08:35;;;;;;;5.90;5.18;;;22.70;72.90;;;;;;10454249;28;20025;-65
2023/06/19 02:13:36;;;;;;;5.95;5.20;;;22.80;73.00;;;;;;10442019;28;20535;-65
2023/06/19 02:18:37;;;;;;;6.93;5.22;;;22.70;72.90;;;;;;10455910;28;20029;-65
2023/06/19 02:23:37;;;;;;;6.50;5.80;;;22.70;72.90;;;;;;10449901;28;20474;-65
2023/06/19 02:28:38;;;;;;;8.30;5.47;;;22.70;73.00;;;;;;10460462;28;20112;-65
2023/06/19 02:33:39;;;;;;;6.38;5.20;;;22.70;73.00;;;;;;10456480;28;20044;-65
2023/06/19 02:38:39;;;;;;;7.05;5.05;;;22.70;73.00;;;;;;10460128;28;20039;-64
2023/06/19 02:43:42;;;;;;;7.43;5.65;;;22.70;73.00;;;;;;10455515;28;20033;-64
2023/06/19 02:48:42;;;;;;;7.07;5.70;;;22.70;73.00;;;;;;10459352;28;20449;-65
2023/06/19 02:53:43;;;;;;;6.22;5.45;;;22.70;73.00;;;;;;10454377;28;20307;-64
2023/06/19 02:58:44;;;;;;;7.63;5.38;;;22.60;73.00;;;;;;10459045;28;20060;-63
2023/06/19 03:03:46;;;;;;;6.60;5.28;;;22.70;73.00;;;;;;10460662;28;20104;-64
2023/06/19 03:08:47;;;;;;;8.70;6.07;;;22.60;73.00;;;;;;10458076;28;20036;-65
2023/06/19 03:13:52;;;;;;;6.65;5.80;;;22.60;73.00;;;;;;10455098;28;20037;-64
2023/06/19 03:18:52;;;;;;;5.85;5.25;;;22.60;73.00;;;;;;10437795;28;20049;-64
2023/06/19 03:23:53;;;;;;;7.20;5.78;;;22.60;73.10;;;;;;10453273;28;20075;-65
2023/06/19 03:28:53;;;;;;;5.97;5.00;;;22.60;73.10;;;;;;10446882;28;20028;-65
2023/06/19 03:33:54;;;;;;;7.45;5.95;;;22.50;73.10;;;;;;10453768;28;20024;-65
2023/06/19 03:38:55;;;;;;;7.78;5.40;;;22.50;73.10;;;;;;10445746;28;20103;-63
2023/06/19 03:43:56;;;;;;;7.07;5.55;;;22.40;73.10;;;;;;10441968;28;20070;-64
2023/06/19 03:48:56;;;;;;;6.88;4.93;;;22.50;73.20;;;;;;10439445;28;20047;-66
2023/06/19 03:53:57;;;;;;;6.15;4.95;;;22.50;73.30;;;;;;10439505;28;20029;-64
2023/06/19 03:58:57;;;;;;;6.65;5.15;;;22.50;73.30;;;;;;10442477;28;20043;-65
2023/06/19 04:03:59;;;;;;;5.65;4.90;;;22.50;73.40;;;;;;10444017;28;20050;-65
2023/06/19 04:08:59;;;;;;;6.13;5.05;;;22.50;73.40;;;;;;10438972;28;20397;-65
2023/06/19 04:14:00;;;;;;;5.57;4.72;;;22.50;73.40;;;;;;10448210;28;20048;-67
2023/06/19 04:19:00;;;;;;;6.47;4.95;;;22.50;73.50;;;;;;10442242;28;20119;-64
2023/06/19 04:24:01;;;;;;;6.63;5.03;;;22.40;73.40;;;;;;10443739;28;20045;-63
2023/06/19 04:29:01;;;;;;;5.10;3.95;;;22.40;73.70;;;;;;10447026;28;20024;-62
2023/06/19 04:34:04;;;;;;;5.18;4.07;;;22.40;73.70;;;;;;10447684;28;20028;-63
2023/06/19 04:39:05;;;;;;;6.22;4.60;;;22.40;73.80;;;;;;10443150;28;20023;-63
2023/06/19 04:44:06;;;;;;;4.40;3.97;;;22.40;73.90;;;;;;10446231;28;20020;-63
2023/06/19 04:49:06;;;;;;;6.65;4.30;;;22.40;74.00;;;;;;10451826;28;20154;-61
2023/06/19 04:54:07;;;;;;;5.75;4.47;;;22.40;74.00;;;;;;10440705;28;20219;-63
2023/06/19 04:59:07;;;;;;;7.28;3.85;;;22.50;74.10;;;;;;10442834;28;20031;-63
2023/06/19 05:04:08;;;;;;;5.75;3.85;;;22.40;74.50;;;;;;10449324;28;20020;-63
2023/06/19 05:09:09;;;;;;;5.72;4.00;;;22.30;74.60;;;;;;10445861;28;20052;-63
2023/06/19 05:14:10;;;;;;;6.80;4.50;;;22.40;74.80;;;;;;10446951;28;20025;-64
2023/06/19 05:19:10;;;;;;;5.25;3.78;;;22.30;74.80;;;;;;10447436;28;20059;-64
2023/06/19 05:24:11;;;;;;;4.88;3.60;;;22.30;74.80;;;;;;10449761;28;20032;-62
2023/06/19 05:29:11;;;;;;;4.38;3.47;;;22.40;74.90;;;;;;10447835;28;20020;-64
2023/06/19 05:34:12;;;;;;;4.30;3.70;;;22.30;75.00;;;;;;10448805;28;20078;-63
2023/06/19 05:39:13;;;;;;;6.10;3.42;;;22.30;75.10;;;;;;10437772;28;20029;-62
2023/06/19 05:44:16;;;;;;;3.70;3.22;;;22.30;75.30;;;;;;10443899;28;20021;-63
2023/06/19 05:49:17;;;;;;;5.85;3.00;;;22.40;75.60;;;;;;10450566;28;20032;-64
2023/06/19 05:54:21;;;;;;;3.55;3.00;;;22.30;75.60;;;;;;10444356;28;20473;-64
2023/06/19 05:59:21;;;;;;;4.22;3.00;;;22.40;75.70;;;;;;10440292;28;20028;-63
2023/06/19 06:04:22;;;;;;;4.38;3.35;;;22.40;75.80;;;;;;10438858;28;20070;-63
2023/06/19 06:09:23;;;;;;;4.50;3.35;;;22.50;76.20;;;;;;10439272;28;20041;-63
2023/06/19 06:14:23;;;;;;;6.10;3.38;;;22.30;76.40;;;;;;10443707;28;20087;-63
2023/06/19 06:19:24;;;;;;;5.97;3.58;;;22.30;76.50;;;;;;10430969;28;20036;-63
2023/06/19 06:24:24;;;;;;;5.15;3.65;;;22.30;76.70;;;;;;10445859;28;20048;-63
2023/06/19 06:29:25;;;;;;;5.55;3.80;;;22.30;76.90;;;;;;10440247;28;20120;-63
2023/06/19 06:34:26;;;;;;;4.25;3.58;;;22.30;77.10;;;;;;10441037;28;20049;-64
2023/06/19 06:39:27;;;;;;;5.70;3.60;;;22.30;77.30;;;;;;10446234;28;20024;-63
2023/06/19 06:44:27;;;;;;;5.45;3.70;;;22.20;77.30;;;;;;10439130;28;20258;-64
2023/06/19 06:49:28;;;;;;;5.45;3.67;;;22.30;77.40;;;;;;10445000;28;20021;-63
2023/06/19 06:54:28;;;;;;;4.75;3.72;;;22.20;77.40;;;;;;10437071;28;20040;-63
2023/06/19 06:59:29;;;;;;;4.57;3.63;;;22.30;77.50;;;;;;10441098;28;20048;-64
2023/06/19 07:04:30;;;;;;;7.10;3.70;;;22.20;77.40;;;;;;10446417;28;20032;-63
2023/06/19 07:09:30;;;;;;;6.60;4.38;;;22.20;77.50;;;;;;10451206;28;20029;-63
2023/06/19 07:14:31;;;;;;;5.53;3.45;;;22.20;77.50;;;;;;10452368;28;20382;-63
2023/06/19 07:19:31;;;;;;;7.18;3.70;;;22.20;77.70;;;;;;10448491;28;20025;-65
2023/06/19 07:24:32;;;;;;;3.50;3.10;;;22.20;77.90;;;;;;10454975;28;20025;-65
2023/06/19 07:29:33;;;;;;;5.15;3.75;;;22.20;77.80;;;;;;10446725;28;20294;-65
2023/06/19 07:34:33;;;;;;;4.05;3.20;;;22.20;77.80;;;;;;10450433;28;20244;-65
2023/06/19 07:39:34;;;;;;;3.58;3.10;;;22.30;78.50;;;;;;10455408;28;20044;-66
2023/06/19 07:44:34;;;;;;;4.20;3.28;;;22.30;77.80;;;;;;10451585;28;20025;-66
2023/06/19 07:49:36;;;;;;;4.40;3.25;;;22.30;77.80;;;;;;10455347;28;20025;-65
2023/06/19 07:54:36;;;;;;;5.75;3.22;;;22.20;77.80;;;;;;10448986;28;20022;-65
2023/06/19 07:59:37;;;;;;;3.95;3.50;;;22.30;77.90;;;;;;10450846;28;21543;-65
2023/06/19 08:04:38;;;;;;;4.35;3.72;;;22.30;77.80;;;;;;10448313;28;20043;-64
2023/06/19 08:09:38;;;;;;;4.88;3.80;;;22.30;77.90;;;;;;10447621;28;20048;-65
2023/06/19 08:14:39;;;;;;;5.20;3.80;;;22.30;77.90;;;;;;10443473;28;20028;-65
2023/06/19 08:19:39;;;;;;;5.18;3.95;;;22.30;77.90;;;;;;10439173;28;20113;-66
2023/06/19 08:24:40;;;;;;;4.18;3.78;;;22.40;77.90;;;;;;10443087;28;20025;-66
2023/06/19 08:29:43;;;;;;;7.72;5.38;;;22.40;77.90;;;;;;10448017;28;20044;-67
2023/06/19 08:34:43;;;;;;;7.60;5.05;;;22.40;78.10;;;;;;10456821;28;20025;-68
2023/06/19 08:39:44;;;;;;;7.47;5.00;;;22.50;78.40;;;;;;10442733;28;20036;-66
2023/06/19 08:44:45;;;;;;;6.55;5.15;;;22.50;78.30;;;;;;10441512;28;20068;-67
2023/06/19 08:49:46;;;;;;;6.32;4.75;;;22.60;78.50;;;;;;10437171;28;20049;-68
2023/06/19 08:54:47;;;;;;;8.27;4.57;;;22.60;78.30;;;;;;10444130;28;20036;-66
2023/06/19 08:59:50;;;;;;;6.97;4.85;;;22.60;78.30;;;;;;10442858;28;20437;-65
2023/06/19 09:04:50;;;;;;;6.82;4.90;;;22.70;78.50;;;;;;10439051;28;20516;-64
2023/06/19 09:09:51;;;;;;;7.93;5.47;;;22.70;78.50;;;;;;10434443;28;20025;-65
2023/06/19 09:14:51;;;;;;;9.85;6.30;;;22.60;78.70;;;;;;10433895;28;20024;-65
2023/06/19 09:19:55;;;;;;;10.32;6.00;;;22.50;79.00;;;;;;10436789;28;20043;-64
2023/06/19 09:25:01;;;;;;;9.05;6.20;;;22.60;79.50;;;;;;10437307;28;20073;-65
2023/06/19 09:30:05;;;;;;;10.80;6.13;;;22.60;79.70;;;;;;10436769;28;20061;-65
2023/06/19 09:35:06;;;;;;;13.15;7.22;;;22.60;79.60;;;;;;10434950;28;20020;-66
2023/06/19 09:40:10;;;;;;;12.38;7.07;;;22.60;79.70;;;;;;10434562;28;20070;-65
2023/06/19 09:45:14;;;;;;;9.38;6.28;;;22.60;79.90;;;;;;10433377;28;20025;-66
2023/06/19 09:50:16;;;;;;;11.70;6.43;;;22.60;79.70;;;;;;10438984;28;20049;-65
2023/06/19 09:55:19;;;;;;;11.38;6.90;;;22.60;79.50;;;;;;10435944;28;20024;-65
2023/06/19 10:00:25;;;;;;;10.50;5.97;;;22.60;79.70;;;;;;10437344;28;20405;-65
2023/06/19 10:05:30;;;;;;;9.40;6.00;;;22.60;79.60;;;;;;10434179;28;20028;-65
2023/06/19 10:10:31;;;;;;;9.50;5.63;;;22.70;79.50;;;;;;10431462;28;20025;-66
2023/06/19 10:15:32;;;;;;;9.45;5.75;;;22.70;79.40;;;;;;10431415;28;20501;-64
2023/06/19 10:20:38;;;;;;;7.15;5.43;;;22.70;79.30;;;;;;10436107;28;20028;-66
2023/06/19 10:25:42;;;;;;;10.52;6.65;;;22.60;79.20;;;;;;10439592;28;20028;-65
2023/06/19 10:30:42;;;;;;;8.93;6.25;;;22.70;79.30;;;;;;10430691;28;20049;-65
2023/06/19 10:35:43;;;;;;;9.00;6.15;;;22.60;79.30;;;;;;10432294;28;20626;-65
2023/06/19 10:40:45;;;;;;;7.65;5.70;;;22.60;79.40;;;;;;10432471;28;20025;-65
2023/06/19 10:45:46;;;;;;;9.55;6.35;;;22.80;79.10;;;;;;10442720;28;20048;-66
2023/06/19 10:50:48;;;;;;;9.15;6.28;;;22.80;79.20;;;;;;10437529;28;20037;-65
2023/06/19 10:55:48;;;;;;;11.40;6.13;;;22.80;79.30;;;;;;10447460;28;20060;-64
2023/06/19 11:00:49;;;;;;;11.13;5.82;;;23.00;79.00;;;;;;10450555;28;20499;-65
2023/06/19 11:05:49;;;;;;;10.23;6.75;;;23.20;78.70;;;;;;10453139;28;20428;-66
2023/06/19 11:10:50;;;;;;;11.50;7.03;;;23.20;78.60;;;;;;10452203;28;20035;-65
2023/06/19 11:15:51;;;;;;;12.80;6.50;;;23.30;78.30;;;;;;10449998;28;20480;-65
2023/06/19 11:20:52;;;;;;;11.68;7.35;;;23.40;78.40;;;;;;10439298;28;20397;-65
2023/06/19 11:25:53;;;;;;;11.07;6.85;;;23.30;78.40;;;;;;10447031;28;20055;-65
2023/06/19 11:31:02;;;;;;;13.63;7.80;;;23.30;78.50;;;;;;10449689;28;20040;-66
2023/06/19 11:36:03;;;;;;;9.93;6.85;;;23.40;78.90;;;;;;10444908;28;20013;-64
2023/06/19 11:41:04;;;;;;;12.50;7.90;;;23.60;78.50;;;;;;10443866;28;20571;-65
2023/06/19 11:46:06;;;;;;;10.27;7.18;;;23.80;78.40;;;;;;10450009;28;20027;-66
2023/06/19 11:51:07;;;;;;;10.32;6.22;;;23.90;78.20;;;;;;10452538;28;20049;-66
2023/06/19 11:56:09;;;;;;;10.52;6.90;;;23.90;78.10;;;;;;10458139;28;20614;-64
2023/06/19 12:01:09;;;;;;;10.23;7.35;;;24.10;77.80;;;;;;10442187;28;20026;-68
2023/06/19 12:06:10;;;;;;;12.07;7.57;;;24.30;77.80;;;;;;10454756;28;20021;-67
2023/06/19 12:11:12;;;;;;;11.73;7.43;;;24.30;77.60;;;;;;10453299;28;20021;-68
2023/06/19 12:16:14;;;;;;;13.75;7.13;;;24.20;77.40;;;;;;10463086;28;20053;-66
2023/06/19 12:21:14;;;;;;;12.45;8.30;;;24.10;77.60;;;;;;10454899;28;20108;-66
2023/06/19 12:26:15;;;;;;;13.10;7.53;;;24.20;77.50;;;;;;10447383;28;20029;-67
2023/06/19 12:31:16;;;;;;;14.00;7.82;;;24.40;77.30;;;;;;10445147;28;20036;-67
2023/06/19 12:36:16;;;;;;;13.38;8.40;;;24.50;77.20;;;;;;10444572;28;20063;-67
2023/06/19 12:41:17;;;;;;;14.95;8.13;;;24.60;77.00;;;;;;10455360;28;20028;-66
2023/06/19 12:46:17;;;;;;;12.75;7.47;;;24.70;77.00;;;;;;10440237;28;20440;-72
2023/06/19 12:51:18;;;;;;;13.18;7.68;;;24.70;76.90;;;;;;10447486;28;20429;-70
2023/06/19 12:56:18;;;;;;;12.30;8.05;;;24.80;76.90;;;;;;10455703;28;20070;-70
2023/06/19 13:01:19;;;;;;;13.13;8.20;;;24.90;76.80;;;;;;10447865;28;20388;-70
2023/06/19 13:06:21;;;;;;;10.90;6.55;;;25.00;76.40;;;;;;10452523;28;20473;-70
2023/06/19 13:11:21;;;;;;;10.88;6.95;;;25.00;76.40;;;;;;10451028;28;20021;-70
2023/06/19 13:16:25;;;;;;;11.98;7.32;;;25.20;76.00;;;;;;10449975;28;20396;-70
2023/06/19 13:21:26;;;;;;;11.32;7.05;;;25.30;75.60;;;;;;10457609;28;20053;-69
2023/06/19 13:26:26;;;;;;;11.55;7.00;;;25.40;75.40;;;;;;10448376;28;20033;-69
2023/06/19 13:31:27;;;;;;;9.88;7.53;;;25.50;75.10;;;;;;10440555;28;20022;-68
2023/06/19 13:36:28;;;;;;;9.10;6.38;;;25.50;75.20;;;;;;10434383;28;20456;-69
2023/06/19 13:41:31;;;;;;;7.43;5.30;;;25.70;75.10;;;;;;10442126;28;20015;-69
2023/06/19 13:46:31;;;;;;;11.40;5.30;;;25.80;74.70;;;;;;10433477;28;20393;-69
2023/06/19 13:51:32;;;;;;;7.13;4.65;;;25.80;74.20;;;;;;10436159;28;20017;-69
2023/06/19 13:56:33;;;;;;;10.77;6.18;;;25.90;73.60;;;;;;10435501;28;20021;-69
2023/06/19 14:01:33;;;;;;;6.65;4.72;;;26.00;73.50;;;;;;10444726;28;20026;-69
2023/06/19 14:06:35;;;;;;;8.15;4.32;;;26.00;72.60;;;;;;10437366;28;20053;-69
2023/06/19 14:11:35;;;;;;;7.43;3.70;;;26.10;72.90;;;;;;10440905;28;20024;-69
2023/06/19 14:16:36;;;;;;;8.13;4.47;;;26.30;71.90;;;;;;10436906;28;20029;-68
2023/06/19 14:21:36;;;;;;;8.55;4.13;;;26.20;71.50;;;;;;10446478;28;20063;-70
2023/06/19 14:26:37;;;;;;;6.20;4.03;;;26.30;71.20;;;;;;10445551;28;20041;-70
2023/06/19 14:31:37;;;;;;;5.35;3.80;;;26.40;70.60;;;;;;10461006;28;20117;-69
2023/06/19 14:36:39;;;;;;;7.97;4.18;;;26.20;70.70;;;;;;10447932;28;20029;-70
2023/06/19 14:41:40;;;;;;;7.05;4.50;;;26.30;70.90;;;;;;10457542;28;20025;-69
2023/06/19 14:46:41;;;;;;;6.63;4.15;;;26.40;70.80;;;;;;10442076;28;20028;-69
2023/06/19 14:51:43;;;;;;;6.55;3.63;;;26.50;70.50;;;;;;10450243;28;20037;-69
2023/06/19 14:56:44;;;;;;;5.50;4.10;;;26.60;69.60;;;;;;10456578;28;20025;-69
2023/06/19 15:01:45;;;;;;;5.18;3.70;;;26.70;69.50;;;;;;10462731;28;20025;-70
2023/06/19 15:06:45;;;;;;;7.93;4.38;;;26.70;68.80;;;;;;10453018;28;20025;-69
2023/06/19 15:11:46;;;;;;;6.53;4.18;;;26.80;69.20;;;;;;10454158;28;20029;-72
2023/06/19 15:16:46;;;;;;;7.03;3.78;;;26.70;68.50;;;;;;10454536;28;20043;-71
2023/06/19 15:21:47;;;;;;;6.50;3.50;;;26.70;68.30;;;;;;10447232;28;20033;-71
2023/06/19 15:26:48;;;;;;;6.15;3.78;;;26.60;68.30;;;;;;10456165;28;20032;-70
2023/06/19 15:31:48;;;;;;;6.85;3.90;;;26.50;68.50;;;;;;10447400;28;20317;-72
2023/06/19 15:36:49;;;;;;;6.05;4.15;;;26.50;68.50;;;;;;10441386;28;20059;-71
2023/06/19 15:41:50;;;;;;;8.32;4.45;;;26.60;68.50;;;;;;10440794;28;20029;-70
2023/06/19 15:46:50;;;;;;;6.75;4.03;;;26.60;68.60;;;;;;10447814;28;20025;-70
2023/06/19 15:51:51;;;;;;;7.72;4.43;;;26.60;68.50;;;;;;10447976;28;20033;-70
2023/06/19 15:56:51;;;;;;;6.72;4.32;;;26.30;69.10;;;;;;10434769;28;20045;-73
2023/06/19 16:01:52;;;;;;;11.75;4.53;;;26.00;69.30;;;;;;10450008;28;20070;-70
2023/06/19 16:06:53;;;;;;;6.10;4.47;;;25.80;69.70;;;;;;10449707;28;20104;-74
2023/06/19 16:11:53;;;;;;;6.60;4.13;;;25.80;69.90;;;;;;10453381;28;20024;-74
2023/06/19 16:16:54;;;;;;;7.07;4.20;;;25.80;70.00;;;;;;10452241;28;20388;-74
2023/06/19 16:21:54;;;;;;;7.10;4.43;;;25.60;69.60;;;;;;10452709;28;20116;-71
2023/06/19 16:26:55;;;;;;;9.80;4.18;;;25.40;69.80;;;;;;10443791;28;20090;-70
2023/06/19 16:31:56;;;;;;;9.00;4.78;;;25.30;70.00;;;;;;10449113;28;20025;-69
2023/06/19 16:36:56;;;;;;;5.43;4.20;;;25.30;70.00;;;;;;10447654;28;20024;-70
2023/06/19 16:41:57;;;;;;;7.22;4.43;;;25.20;70.10;;;;;;10446308;28;20074;-72
2023/06/19 16:46:58;;;;;;;5.57;4.10;;;25.10;70.20;;;;;;10452672;28;20067;-75
2023/06/19 16:51:58;;;;;;;6.18;4.05;;;25.00;70.00;;;;;;10440201;28;20029;-72
2023/06/19 16:56:59;;;;;;;8.15;4.53;;;25.00;70.00;;;;;;10441929;28;20111;-69
2023/06/19 17:02:00;;;;;;;7.15;4.68;;;24.90;69.90;;;;;;10445057;28;20105;-69
2023/06/19 17:07:00;;;;;;;6.47;4.03;;;24.90;70.20;;;;;;10435157;28;20053;-69
2023/06/19 17:12:01;;;;;;;7.10;3.75;;;24.80;70.10;;;;;;10439502;28;20052;-69
2023/06/19 17:17:02;;;;;;;7.53;4.45;;;24.70;70.10;;;;;;10441003;28;20086;-68
2023/06/19 17:22:02;;;;;;;8.45;3.95;;;24.80;70.00;;;;;;10446115;28;20017;-71
2023/06/19 17:27:03;;;;;;;9.70;5.20;;;24.50;69.00;;;;;;10438526;28;20040;-73
2023/06/19 17:32:04;;;;;;;7.15;3.80;;;24.50;69.30;;;;;;10443969;28;20047;-72
2023/06/19 17:37:05;;;;;;;9.05;4.20;;;24.50;69.20;;;;;;10444637;28;20048;-68
2023/06/19 17:42:06;;;;;;;5.03;3.53;;;24.40;68.40;;;;;;10448890;28;20029;-68
2023/06/19 17:47:07;;;;;;;8.20;3.30;;;24.40;68.30;;;;;;10441866;28;20031;-68
2023/06/19 17:52:07;;;;;;;4.50;3.15;;;24.30;68.00;;;;;;10448404;28;20037;-68
2023/06/19 17:57:08;;;;;;;5.70;3.58;;;24.30;68.10;;;;;;10446210;28;20085;-69
2023/06/19 18:02:09;;;;;;;6.97;4.00;;;24.20;68.90;;;;;;10444126;28;20021;-68
2023/06/19 18:07:09;;;;;;;8.18;3.50;;;24.00;68.30;;;;;;10441605;28;20025;-68
2023/06/19 18:12:12;;;;;;;6.65;3.75;;;24.00;68.50;;;;;;10441901;28;20024;-67
2023/06/19 18:17:12;;;;;;;6.28;3.75;;;23.90;68.70;;;;;;10439102;28;20021;-67
2023/06/19 18:22:13;;;;;;;7.90;4.35;;;23.90;68.80;;;;;;10445449;28;20017;-66
2023/06/19 18:27:14;;;;;;;4.78;3.10;;;23.80;68.90;;;;;;10440460;28;20128;-67
2023/06/19 18:32:14;;;;;;;6.38;3.60;;;23.80;69.20;;;;;;10443767;28;20041;-68
2023/06/19 18:37:15;;;;;;;6.00;3.67;;;23.70;69.20;;;;;;10442144;28;20028;-68
2023/06/19 18:42:16;;;;;;;8.20;3.90;;;23.70;69.50;;;;;;10443653;28;20022;-67
2023/06/19 18:47:17;;;;;;;8.05;3.67;;;23.60;69.90;;;;;;10454101;28;20020;-67
2023/06/19 18:52:17;;;;;;;6.00;3.72;;;23.50;70.00;;;;;;10435326;28;20504;-66
2023/06/19 18:57:18;;;;;;;5.40;3.63;;;23.50;70.20;;;;;;10456057;28;20644;-66
2023/06/19 19:02:18;;;;;;;6.45;3.63;;;23.50;70.40;;;;;;10434028;28;20021;-66
2023/06/19 19:07:19;;;;;;;4.72;3.10;;;23.50;70.50;;;;;;10443975;28;20036;-67
2023/06/19 19:12:19;;;;;;;7.10;3.85;;;23.40;70.80;;;;;;10437517;28;20021;-66
2023/06/19 19:17:20;;;;;;;6.30;3.88;;;23.40;71.10;;;;;;10442644;28;20048;-66
2023/06/19 19:22:21;;;;;;;6.68;3.88;;;23.40;71.40;;;;;;10446449;28;20012;-67
2023/06/19 19:27:21;;;;;;;9.85;4.00;;;23.30;71.80;;;;;;10441579;28;20489;-67
2023/06/19 19:32:22;;;;;;;7.03;4.10;;;23.20;72.20;;;;;;10444575;28;20028;-67
2023/06/19 19:37:23;;;;;;;7.07;4.05;;;23.20;72.50;;;;;;10443454;28;20055;-68
2023/06/19 19:42:26;;;;;;;6.50;4.28;;;23.10;72.70;;;;;;10441474;28;20503;-68
2023/06/19 19:47:26;;;;;;;10.77;4.53;;;23.00;72.90;;;;;;10441755;28;20024;-68
2023/06/19 19:52:27;;;;;;;9.30;3.92;;;22.90;73.10;;;;;;10437186;28;20024;-69
2023/06/19 19:57:28;;;;;;;7.72;3.60;;;23.10;73.10;;;;;;10443145;28;20052;-66
2023/06/19 20:02:28;;;;;;;6.50;3.80;;;23.20;73.00;;;;;;10436659;28;20699;-66
2023/06/19 20:07:29;;;;;;;7.80;4.13;;;23.30;72.80;;;;;;10428632;28;20271;-66
2023/06/19 20:12:30;;;;;;;6.97;3.92;;;23.40;72.80;;;;;;10425283;28;20036;-64
2023/06/19 20:17:31;;;;;;;6.95;3.90;;;23.40;72.60;;;;;;10435237;28;20020;-64
2023/06/19 20:22:31;;;;;;;8.05;4.10;;;23.50;72.70;;;;;;10433298;28;20021;-66
2023/06/19 20:27:32;;;;;;;4.68;3.58;;;23.50;72.70;;;;;;10434725;28;20024;-66
2023/06/19 20:32:32;;;;;;;5.38;3.67;;;23.60;72.80;;;;;;10431060;28;20048;-66
2023/06/19 20:37:33;;;;;;;5.68;3.70;;;23.50;72.80;;;;;;10426480;28;20400;-65
2023/06/19 20:42:34;;;;;;;7.00;4.38;;;23.60;73.00;;;;;;10439090;28;20142;-65
2023/06/19 20:47:35;;;;;;;5.60;3.88;;;23.60;73.00;;;;;;10438347;28;20025;-66
2023/06/19 20:52:35;;;;;;;5.85;3.85;;;23.50;73.10;;;;;;10428144;28;20409;-65
2023/06/19 20:57:36;;;;;;;4.93;3.45;;;23.50;73.10;;;;;;10441396;28;21178;-66
2023/06/19 21:02:37;;;;;;;6.30;3.95;;;23.50;73.20;;;;;;10437405;28;20473;-66
2023/06/19 21:07:38;;;;;;;8.57;4.07;;;23.50;73.30;;;;;;10442144;28;20040;-65
2023/06/19 21:12:38;;;;;;;6.40;4.07;;;23.50;73.40;;;;;;10435308;28;20044;-66
2023/06/19 21:17:39;;;;;;;6.43;4.10;;;23.50;73.50;;;;;;10443546;28;20029;-66
2023/06/19 21:22:39;;;;;;;6.40;3.90;;;23.30;73.60;;;;;;10438706;28;20077;-66
2023/06/19 21:27:40;;;;;;;5.88;3.92;;;23.40;73.70;;;;;;10447245;28;20423;-64
2023/06/19 21:32:41;;;;;;;5.88;4.03;;;23.40;73.80;;;;;;10443353;28;20029;-65
2023/06/19 21:37:41;;;;;;;7.63;4.47;;;23.40;73.90;;;;;;10449116;28;20057;-64
2023/06/19 21:42:42;;;;;;;5.55;3.70;;;23.40;73.90;;;;;;10443523;28;20025;-66
2023/06/19 21:47:42;;;;;;;5.90;3.55;;;23.30;73.90;;;;;;10439018;28;20119;-66
2023/06/19 21:52:43;;;;;;;5.95;4.00;;;23.30;74.00;;;;;;10442981;28;20021;-65
2023/06/19 21:57:44;;;;;;;5.68;3.80;;;23.30;74.00;;;;;;10450248;28;20499;-66
2023/06/19 22:02:45;;;;;;;6.00;4.07;;;23.30;74.10;;;;;;10443846;28;20390;-64
2023/06/19 22:07:45;;;;;;;5.90;4.05;;;23.20;74.10;;;;;;10441140;28;20036;-66
2023/06/19 22:12:47;;;;;;;5.85;4.03;;;23.20;74.10;;;;;;10439725;28;20041;-64
2023/06/19 22:17:47;;;;;;;4.95;3.88;;;23.20;74.20;;;;;;10436591;28;21004;-66
2023/06/19 22:22:48;;;;;;;6.18;3.70;;;23.20;74.30;;;;;;10447510;28;20124;-65
2023/06/19 22:27:54;;;;;;;7.53;4.03;;;23.10;74.30;;;;;;10445756;28;20102;-65
2023/06/19 22:32:54;;;;;;;6.68;4.03;;;23.10;74.40;;;;;;10447593;28;20056;-66
2023/06/19 22:37:55;;;;;;;5.78;3.60;;;23.10;74.40;;;;;;10430368;28;20505;-65
2023/06/19 22:42:55;;;;;;;6.03;4.22;;;23.10;74.50;;;;;;10449309;28;20064;-64
2023/06/19 22:47:56;;;;;;;6.57;3.88;;;23.00;74.50;;;;;;10454073;28;20029;-66
2023/06/19 22:52:57;;;;;;;4.80;3.40;;;23.00;74.50;;;;;;10455293;28;20498;-66
2023/06/19 22:57:57;;;;;;;5.93;4.15;;;23.00;74.60;;;;;;10451098;28;20631;-66
2023/06/19 23:02:58;;;;;;;4.82;3.83;;;23.00;74.60;;;;;;10460680;28;20136;-66
2023/06/19 23:07:59;;;;;;;6.20;3.80;;;23.00;74.70;;;;;;10449954;28;20025;-65
2023/06/19 23:12:59;;;;;;;5.60;4.03;;;22.90;74.70;;;;;;10449668;28;20028;-66
2023/06/19 23:18:00;;;;;;;4.63;3.80;;;22.90;74.70;;;;;;10460038;28;20033;-64
2023/06/19 23:23:05;;;;;;;5.97;4.13;;;22.90;74.80;;;;;;10452449;28;20021;-66
2023/06/19 23:28:06;;;;;;;6.03;4.25;;;22.90;74.70;;;;;;10452272;28;20028;-64
2023/06/19 23:33:07;;;;;;;6.05;4.15;;;22.70;74.70;;;;;;10459370;28;20437;-65
2023/06/19 23:38:08;;;;;;;5.63;4.15;;;22.80;74.80;;;;;;10463659;28;20074;-66
2023/06/19 23:43:09;;;;;;;7.53;4.30;;;22.80;74.80;;;;;;10457563;28;20016;-66
2023/06/19 23:48:09;;;;;;;5.47;4.00;;;22.80;74.80;;;;;;10454862;28;20221;-64
2023/06/19 23:53:10;;;;;;;6.20;3.95;;;22.70;74.80;;;;;;10453691;28;20020;-66
2023/06/19 23:58:12;;;;;;;6.38;4.43;;;22.70;74.80;;;;;;10450436;28;20025;-65
